createdAt,value
2019-03-05T00:05:29.254Z,11.70
2019-03-05T00:15:33.448Z,5.40
2019-03-05T00:25:37.335Z,8.57
2019-03-05T00:36:10.620Z,11.23
2019-03-05T00:46:37.966Z,12.17
2019-03-05T00:57:06.955Z,8.03
2019-03-05T01:07:10.807Z,9.07
2019-03-05T01:17:14.669Z,8.33
2019-03-05T01:27:19.098Z,8.00
2019-03-05T01:37:23.291Z,5.70
2019-03-05T01:47:27.658Z,9.20
2019-03-05T01:57:31.712Z,9.07
2019-03-05T02:07:35.775Z,5.80
2019-03-05T02:17:39.546Z,5.77
2019-03-05T02:27:55.060Z,6.03
2019-03-05T02:38:33.411Z,3.73
2019-03-05T02:49:02.505Z,3.50
2019-03-05T02:59:05.588Z,6.27
2019-03-05T03:10:09.537Z,4.47
2019-03-05T03:20:15.185Z,5.57
2019-03-05T03:30:24.231Z,4.73
2019-03-05T03:40:28.291Z,2.93
2019-03-05T03:50:32.096Z,4.30
2019-03-05T04:00:35.879Z,5.30
2019-03-05T04:10:39.675Z,5.80
2019-03-05T04:20:47.880Z,5.73
2019-03-05T04:30:52.184Z,5.37
2019-03-05T04:40:56.496Z,3.53
2019-03-05T04:51:12.700Z,3.63
2019-03-05T05:01:17.279Z,5.00
2019-03-05T05:11:21.567Z,2.87
2019-03-05T05:21:25.747Z,4.07
2019-03-05T05:31:30.050Z,4.53
2019-03-05T05:41:34.118Z,3.20
2019-03-05T05:51:38.158Z,5.77
2019-03-05T06:01:42.491Z,5.23
2019-03-05T06:11:46.268Z,5.07
2019-03-05T06:21:50.055Z,4.78
2019-03-05T06:31:53.843Z,3.77
2019-03-05T06:41:58.136Z,4.27
2019-03-05T06:52:01.990Z,5.47
2019-03-05T07:02:06.183Z,4.07
2019-03-05T07:12:56.929Z,4.33
2019-03-05T07:23:16.723Z,3.52
2019-03-05T07:33:20.778Z,3.27
2019-03-05T07:43:35.984Z,6.57
2019-03-05T07:53:30.326Z,9.83
2019-03-05T08:03:34.119Z,10.97
2019-03-05T08:14:05.356Z,7.53
2019-03-05T08:24:09.143Z,7.30
2019-03-05T08:34:12.951Z,5.60
2019-03-05T08:44:17.280Z,9.50
2019-03-05T08:54:40.035Z,7.00
2019-03-05T09:04:44.300Z,5.03
2019-03-05T09:14:48.348Z,6.43
2019-03-05T09:24:52.900Z,7.30
2019-03-05T09:34:57.463Z,4.70
2019-03-05T09:45:01.505Z,5.33
2019-03-05T09:55:06.404Z,5.10
2019-03-05T10:05:11.177Z,5.10
2019-03-05T10:15:17.842Z,3.53
2019-03-05T10:25:23.425Z,3.60
2019-03-05T10:35:27.483Z,3.27
2019-03-05T10:45:32.040Z,7.37
2019-03-05T10:55:36.154Z,3.80
2019-03-05T11:05:42.547Z,4.07
2019-03-05T11:15:49.248Z,2.30
2019-03-05T11:25:53.359Z,2.77
2019-03-05T11:35:57.467Z,2.10
2019-03-05T11:46:01.578Z,1.90
2019-03-05T11:56:05.780Z,1.77
2019-03-05T12:06:09.830Z,2.93
2019-03-05T12:16:15.390Z,1.40
2019-03-05T12:26:19.427Z,1.90
2019-03-05T12:36:23.623Z,2.20
2019-03-05T12:46:27.982Z,2.90
2019-03-05T12:56:32.291Z,1.73
2019-03-05T13:06:36.655Z,3.00
2019-03-05T13:16:40.762Z,1.23
2019-03-05T13:26:46.358Z,1.60
2019-03-05T13:36:51.614Z,2.00
2019-03-05T13:47:08.839Z,1.83
2019-03-05T13:57:56.070Z,1.60
2019-03-05T14:08:34.116Z,1.23
2019-03-05T14:18:37.989Z,2.97
2019-03-05T14:28:42.424Z,2.20
2019-03-05T14:38:46.375Z,3.70
2019-03-05T14:48:50.415Z,1.80
2019-03-05T14:58:54.693Z,3.60
2019-03-05T15:08:59.251Z,7.70
2019-03-05T15:19:03.169Z,3.07
2019-03-05T15:29:07.576Z,3.43
2019-03-05T15:39:11.996Z,4.83
2019-03-05T15:49:16.100Z,2.27
2019-03-05T15:59:20.188Z,2.37
2019-03-05T16:09:24.296Z,2.77
2019-03-05T16:19:28.627Z,2.43
2019-03-05T16:29:32.680Z,4.43
2019-03-05T16:39:46.417Z,1.47
2019-03-05T16:50:08.343Z,2.30
2019-03-05T17:00:35.182Z,2.83
2019-03-05T17:11:04.849Z,2.30
2019-03-05T17:21:09.018Z,2.57
2019-03-05T17:31:13.171Z,1.07
2019-03-05T17:41:17.322Z,0.97
2019-03-05T17:51:26.255Z,0.77
2019-03-05T18:01:30.215Z,1.97
2019-03-05T18:11:34.713Z,0.90
2019-03-05T18:21:58.256Z,0.67
2019-03-05T18:32:02.032Z,0.70
2019-03-05T18:42:06.191Z,0.83
2019-03-05T18:52:10.247Z,1.77
2019-03-05T19:02:14.552Z,0.50
2019-03-05T19:12:18.619Z,1.17
2019-03-05T19:22:22.944Z,1.47
2019-03-05T19:32:27.167Z,1.17
2019-03-05T19:42:31.762Z,1.87
2019-03-05T19:52:36.139Z,3.33
2019-03-05T20:02:40.611Z,1.43
2019-03-05T20:12:44.656Z,1.20
2019-03-05T20:22:48.923Z,2.33
2019-03-05T20:32:53.460Z,1.90
2019-03-05T20:42:57.543Z,1.43
2019-03-05T20:53:02.146Z,1.90
2019-03-05T21:03:06.766Z,1.60
2019-03-05T21:13:11.149Z,1.87
2019-03-05T21:23:15.494Z,1.23
2019-03-05T21:33:19.894Z,1.97
2019-03-05T21:43:23.859Z,1.37
2019-03-05T21:53:27.903Z,1.50
2019-03-05T22:03:33.535Z,3.53
2019-03-05T22:13:45.386Z,3.33
2019-03-05T22:23:49.822Z,1.87
2019-03-05T22:33:54.247Z,1.77
2019-03-05T22:43:58.595Z,0.70
2019-03-05T22:54:02.648Z,2.67
2019-03-05T23:04:07.186Z,1.97
2019-03-05T23:14:11.584Z,2.57
2019-03-05T23:24:15.576Z,3.30
2019-03-05T23:34:19.435Z,4.10
2019-03-05T23:44:23.818Z,5.80
2019-03-05T23:54:28.023Z,4.03
